createdAt,value
2022-08-19T00:02:10.780Z,49.81
2022-08-19T00:04:40.678Z,49.89
2022-08-19T00:07:09.783Z,49.85
2022-08-19T00:09:40.933Z,49.77
2022-08-19T00:12:10.903Z,49.75
2022-08-19T00:14:41.413Z,49.96
2022-08-19T00:17:11.291Z,49.93
2022-08-19T00:19:49.414Z,50.02
2022-08-19T00:22:19.358Z,50.24
2022-08-19T00:24:52.236Z,50.27
2022-08-19T00:27:25.780Z,50.62
2022-08-19T00:29:59.801Z,50.75
2022-08-19T00:32:55.926Z,50.85
2022-08-19T00:35:28.048Z,50.84
2022-08-19T00:37:57.335Z,51.01
2022-08-19T00:40:27.157Z,51.20
2022-08-19T00:42:56.599Z,51.34
2022-08-19T00:45:31.084Z,51.38
2022-08-19T00:48:04.658Z,51.44
2022-08-19T00:50:34.521Z,51.67
2022-08-19T00:53:05.676Z,51.88
2022-08-19T00:55:35.462Z,52.01
2022-08-19T00:58:07.937Z,51.91
2022-08-19T01:00:37.948Z,51.83
2022-08-19T01:03:10.556Z,51.87
2022-08-19T01:05:48.229Z,51.97
2022-08-19T01:08:17.624Z,52.05
2022-08-19T01:10:49.701Z,51.91
2022-08-19T01:13:21.178Z,51.78
2022-08-19T01:16:03.550Z,51.94
2022-08-19T01:18:36.905Z,52.10
2022-08-19T01:21:11.811Z,52.10
2022-08-19T01:23:44.017Z,52.46
2022-08-19T01:26:17.990Z,52.49
2022-08-19T01:28:52.232Z,52.40
2022-08-19T01:31:27.049Z,52.50
2022-08-19T01:33:59.021Z,52.60
2022-08-19T01:36:32.263Z,52.43
2022-08-19T01:39:07.376Z,52.53
2022-08-19T01:41:36.641Z,52.63
2022-08-19T01:44:18.871Z,52.68
2022-08-19T01:46:49.917Z,52.69
2022-08-19T01:49:29.023Z,52.73
2022-08-19T01:52:07.120Z,52.91
2022-08-19T01:54:36.656Z,52.88
2022-08-19T01:57:09.910Z,52.84
2022-08-19T01:59:43.092Z,53.13
2022-08-19T02:02:12.480Z,53.22
2022-08-19T02:04:42.100Z,53.22
2022-08-19T02:07:11.384Z,53.29
2022-08-19T02:09:40.574Z,53.33
2022-08-19T02:12:10.238Z,53.27
2022-08-19T02:14:39.550Z,53.25
2022-08-19T02:17:09.323Z,53.25
2022-08-19T02:19:39.353Z,53.31
2022-08-19T02:22:10.313Z,53.26
2022-08-19T02:24:39.788Z,53.40
2022-08-19T02:27:09.332Z,53.42
2022-08-19T02:29:38.770Z,53.44
2022-08-19T02:32:10.459Z,53.85
2022-08-19T02:34:39.778Z,53.89
2022-08-19T02:37:29.346Z,53.81
2022-08-19T02:39:59.400Z,53.81
2022-08-19T02:42:30.810Z,53.85
2022-08-19T02:45:01.135Z,53.57
2022-08-19T02:47:30.095Z,53.68
2022-08-19T02:49:59.297Z,53.98
2022-08-19T02:52:28.734Z,54.17
2022-08-19T02:54:57.933Z,54.34
2022-08-19T02:57:27.132Z,54.50
2022-08-19T02:59:56.346Z,54.53
2022-08-19T03:02:25.852Z,54.68
2022-08-19T03:04:55.466Z,54.63
2022-08-19T03:07:25.503Z,54.66
2022-08-19T03:09:55.033Z,54.64
2022-08-19T03:12:24.536Z,54.57
2022-08-19T03:14:54.012Z,54.55
2022-08-19T03:17:23.961Z,54.55
2022-08-19T03:19:52.957Z,54.56
2022-08-19T03:22:22.999Z,54.46
2022-08-19T03:24:54.175Z,54.49
2022-08-19T03:27:23.531Z,54.44
2022-08-19T03:29:55.414Z,54.64
2022-08-19T03:32:32.629Z,54.65
2022-08-19T03:35:04.305Z,54.84
2022-08-19T03:37:33.562Z,54.85
2022-08-19T03:40:04.216Z,54.81
2022-08-19T03:42:49.028Z,54.77
2022-08-19T03:45:22.793Z,54.84
2022-08-19T03:47:56.059Z,54.94
2022-08-19T03:50:25.798Z,54.86
2022-08-19T03:52:55.070Z,54.83
2022-08-19T03:55:27.170Z,54.79
2022-08-19T03:57:59.260Z,54.73
2022-08-19T04:00:33.914Z,54.71
2022-08-19T04:03:05.061Z,55.09
2022-08-19T04:05:34.330Z,55.03
2022-08-19T04:08:14.205Z,55.28
2022-08-19T04:10:48.538Z,55.52
2022-08-19T04:13:28.168Z,55.52
2022-08-19T04:16:02.682Z,55.52
2022-08-19T04:18:36.511Z,55.56
2022-08-19T04:21:07.423Z,55.55
2022-08-19T04:23:43.197Z,55.55
2022-08-19T04:26:27.533Z,55.47
2022-08-19T04:41:23.305Z,55.01
2022-08-19T04:43:52.757Z,54.98
2022-08-19T04:46:39.352Z,54.88
2022-08-19T04:49:13.061Z,54.92
2022-08-19T04:51:44.866Z,54.86
2022-08-19T04:54:14.503Z,54.75
2022-08-19T04:56:50.353Z,54.63
2022-08-19T04:59:20.838Z,54.53
2022-08-19T05:01:51.221Z,54.54
2022-08-19T05:04:25.432Z,54.68
2022-08-19T05:07:00.900Z,54.56
2022-08-19T05:09:33.055Z,54.54
2022-08-19T05:12:28.911Z,54.50
2022-08-19T05:14:58.850Z,54.63
2022-08-19T05:17:32.330Z,54.86
2022-08-19T05:20:26.666Z,54.96
2022-08-19T05:22:56.237Z,54.94
2022-08-19T05:25:26.459Z,54.96
2022-08-19T05:27:58.954Z,54.89
2022-08-19T05:30:46.115Z,54.75
2022-08-19T05:33:16.175Z,55.03
2022-08-19T05:35:46.779Z,55.15
2022-08-19T05:38:19.064Z,55.15
2022-08-19T05:40:55.826Z,55.11
2022-08-19T05:43:30.271Z,55.20
2022-08-19T05:46:05.608Z,55.20
2022-08-19T05:48:41.003Z,55.18
2022-08-19T05:51:13.428Z,55.17
2022-08-19T05:53:51.825Z,55.02
2022-08-19T05:56:24.297Z,54.97
2022-08-19T05:58:56.967Z,54.86
2022-08-19T06:01:31.172Z,54.69
2022-08-19T06:04:04.078Z,54.89
2022-08-19T06:06:38.063Z,54.60
2022-08-19T06:09:13.356Z,54.41
2022-08-19T06:11:50.136Z,54.28
2022-08-19T06:14:31.252Z,54.37
2022-08-19T06:18:35.364Z,54.26
2022-08-19T06:31:02.842Z,53.64
2022-08-19T06:33:50.157Z,53.42
2022-08-19T06:36:33.875Z,53.50
2022-08-19T06:39:08.990Z,53.26
2022-08-19T06:41:55.452Z,52.75
2022-08-19T06:44:42.483Z,52.61
2022-08-19T06:47:23.397Z,52.53
2022-08-19T06:50:03.836Z,52.46
2022-08-19T06:52:39.554Z,52.47
2022-08-19T06:55:14.361Z,52.46
2022-08-19T06:57:49.341Z,52.12
2022-08-19T07:00:22.175Z,51.95
2022-08-19T07:03:00.128Z,51.87
2022-08-19T07:05:45.575Z,51.55
2022-08-19T07:08:18.693Z,51.51
2022-08-19T07:10:51.556Z,51.18
2022-08-19T07:13:25.034Z,50.96
2022-08-19T07:15:57.944Z,51.04
2022-08-19T07:18:30.540Z,50.83
2022-08-19T07:21:09.496Z,50.82
2022-08-19T07:23:43.713Z,50.49
2022-08-19T07:26:20.032Z,50.33
2022-08-19T07:29:01.500Z,50.10
2022-08-19T07:31:38.044Z,49.88
2022-08-19T07:34:15.866Z,49.73
2022-08-19T07:36:50.527Z,49.59
2022-08-19T07:39:28.809Z,49.46
2022-08-19T07:42:03.348Z,49.17
2022-08-19T07:44:36.381Z,49.23
2022-08-19T07:47:50.229Z,48.71
2022-08-19T07:50:19.578Z,48.65
2022-08-19T07:52:55.340Z,48.57
2022-08-19T07:55:43.536Z,48.40
2022-08-19T07:58:22.604Z,48.53
2022-08-19T08:00:58.016Z,48.35
2022-08-19T08:03:49.636Z,48.20
2022-08-19T08:06:39.958Z,48.00
2022-08-19T08:12:17.969Z,47.71
2022-08-19T08:15:42.939Z,47.55
2022-08-19T08:18:50.672Z,47.42
2022-08-19T08:21:51.003Z,47.14
2022-08-19T08:24:39.058Z,46.94
2022-08-19T08:27:13.058Z,46.92
2022-08-19T08:29:45.891Z,46.90
2022-08-19T08:32:18.609Z,46.88
2022-08-19T08:34:51.803Z,46.59
2022-08-19T08:37:28.247Z,46.37
2022-08-19T08:40:11.291Z,46.37
2022-08-19T08:43:10.999Z,46.16
2022-08-19T08:45:54.711Z,45.81
2022-08-19T08:48:38.754Z,45.91
2022-08-19T08:51:20.188Z,45.84
2022-08-19T08:54:04.723Z,45.75
2022-08-19T08:56:41.460Z,45.60
2022-08-19T08:59:22.995Z,45.20
2022-08-19T09:06:14.625Z,44.53
2022-08-19T09:09:35.444Z,44.46
2022-08-19T09:12:30.504Z,44.12
2022-08-19T09:15:36.648Z,44.15
2022-08-19T09:18:32.665Z,44.04
2022-08-19T09:18:52.859Z,45.21
2022-08-19T09:21:14.249Z,44.01
2022-08-19T09:26:53.615Z,43.39
2022-08-19T09:29:42.627Z,43.15
2022-08-19T10:19:56.545Z,38.79
2022-08-19T10:22:40.430Z,37.93
2022-08-19T10:25:22.195Z,37.92
2022-08-19T10:27:56.686Z,37.78
2022-08-19T10:48:08.047Z,37.25
2022-08-19T10:51:09.014Z,36.73
2022-08-19T10:54:00.300Z,36.81
2022-08-19T10:58:04.144Z,36.70
2022-08-19T11:00:37.503Z,36.41
2022-08-19T11:03:16.495Z,36.60
2022-08-19T11:05:57.841Z,36.56
2022-08-19T11:08:35.371Z,36.39
2022-08-19T11:11:13.967Z,36.32
2022-08-19T11:13:54.162Z,36.41
2022-08-19T11:16:26.775Z,36.34
2022-08-19T11:19:03.153Z,36.21
2022-08-19T11:21:39.187Z,36.21
2022-08-19T11:24:15.962Z,36.14
2022-08-19T11:27:02.689Z,35.82
2022-08-19T11:29:53.108Z,35.74
2022-08-19T11:32:49.247Z,35.72
2022-08-19T11:39:05.800Z,35.41
2022-08-19T11:41:37.302Z,34.99
2022-08-19T11:44:08.171Z,34.96
2022-08-19T11:46:50.110Z,35.20
2022-08-19T11:49:25.548Z,34.92
2022-08-19T11:54:53.186Z,34.48
2022-08-19T11:57:27.970Z,34.42
2022-08-19T12:00:15.594Z,34.30
2022-08-19T12:03:00.110Z,34.08
2022-08-19T12:05:45.023Z,34.24
2022-08-19T12:09:04.188Z,34.21
2022-08-19T12:11:34.683Z,34.10
2022-08-19T12:14:04.176Z,34.00
2022-08-19T12:16:36.213Z,34.14
2022-08-19T12:19:07.992Z,33.74
2022-08-19T12:21:39.838Z,33.62
2022-08-19T12:24:09.423Z,33.52
2022-08-19T12:26:53.259Z,33.41
2022-08-19T12:29:30.193Z,33.20
2022-08-19T12:32:01.743Z,32.89
2022-08-19T12:34:32.125Z,32.69
2022-08-19T12:37:04.124Z,32.72
2022-08-19T12:39:52.917Z,32.43
2022-08-19T12:42:29.773Z,32.13
2022-08-19T12:45:06.776Z,31.68
2022-08-19T12:47:54.671Z,31.49
2022-08-19T12:50:32.115Z,31.42
2022-08-19T12:53:08.445Z,31.47
2022-08-19T12:56:00.743Z,31.28
2022-08-19T12:58:31.587Z,31.28
2022-08-19T13:01:23.191Z,31.06
2022-08-19T13:04:12.411Z,31.10
2022-08-19T13:07:22.252Z,31.26
2022-08-19T13:09:55.655Z,30.68
2022-08-19T13:12:44.874Z,30.28
2022-08-19T13:15:24.389Z,30.00
2022-08-19T13:18:02.675Z,29.70
2022-08-19T13:20:38.064Z,29.29
2022-08-19T13:23:10.133Z,29.35
2022-08-19T13:25:42.575Z,28.85
2022-08-19T13:28:13.424Z,28.34
2022-08-19T13:31:09.624Z,28.29
2022-08-19T13:33:39.028Z,28.25
2022-08-19T13:36:09.058Z,27.89
2022-08-19T13:38:44.300Z,27.79
2022-08-19T13:41:24.666Z,27.75
2022-08-19T13:43:54.689Z,27.64
2022-08-19T13:46:24.126Z,27.34
2022-08-19T13:48:53.527Z,26.91
2022-08-19T13:51:27.342Z,26.61
2022-08-19T13:53:57.005Z,26.33
2022-08-19T13:56:27.835Z,26.21
2022-08-19T13:58:59.458Z,25.99
2022-08-19T14:01:32.633Z,25.45
2022-08-19T14:04:06.317Z,25.56
2022-08-19T14:06:36.143Z,25.47
2022-08-19T14:09:06.177Z,25.44
2022-08-19T14:11:35.791Z,25.18
2022-08-19T14:14:07.533Z,25.05
2022-08-19T14:16:41.436Z,24.85
2022-08-19T14:19:11.360Z,24.27
2022-08-19T14:21:48.255Z,24.06
2022-08-19T14:24:17.630Z,24.13
2022-08-19T14:26:49.343Z,23.82
2022-08-19T14:29:18.749Z,23.60
2022-08-19T14:31:56.642Z,23.46
2022-08-19T14:34:25.848Z,23.27
2022-08-19T14:36:54.976Z,23.29
2022-08-19T14:39:24.816Z,22.85
2022-08-19T14:41:55.230Z,22.90
2022-08-19T14:44:25.557Z,22.76
2022-08-19T14:46:54.739Z,22.46
2022-08-19T14:49:34.733Z,22.43
2022-08-19T14:52:05.483Z,22.47
2022-08-19T14:54:34.855Z,22.43
2022-08-19T14:57:04.807Z,22.36
2022-08-19T14:59:36.364Z,22.25
2022-08-19T15:02:33.575Z,22.00
2022-08-19T15:09:13.560Z,21.57
2022-08-19T15:12:33.531Z,21.50
2022-08-19T15:18:57.334Z,20.77
2022-08-19T15:21:31.781Z,20.81
2022-08-19T15:28:53.463Z,20.70
2022-08-19T15:31:17.873Z,20.42
2022-08-19T15:33:56.758Z,20.37
2022-08-19T15:36:38.099Z,20.52
2022-08-19T15:39:09.593Z,20.24
2022-08-19T15:41:40.635Z,20.21
2022-08-19T15:44:16.853Z,20.40
2022-08-19T15:46:47.985Z,20.26
2022-08-19T15:49:19.251Z,20.32
2022-08-19T15:51:52.618Z,20.10
2022-08-19T15:54:22.608Z,20.14
2022-08-19T15:57:27.946Z,20.04
2022-08-19T16:00:15.252Z,20.20
2022-08-19T16:03:33.427Z,20.01
2022-08-19T16:06:27.452Z,20.29
2022-08-19T16:08:58.980Z,19.98
2022-08-19T16:11:33.045Z,20.41
2022-08-19T16:14:03.718Z,20.45
2022-08-19T16:16:38.199Z,20.38
2022-08-19T16:19:10.660Z,20.35
2022-08-19T16:21:54.392Z,20.51
2022-08-19T16:24:27.912Z,20.66
2022-08-19T16:26:59.073Z,20.44
2022-08-19T16:29:33.711Z,20.56
2022-08-19T16:32:12.488Z,20.78
2022-08-19T16:35:06.762Z,20.82
2022-08-19T16:37:44.979Z,20.94
2022-08-19T16:40:19.672Z,20.97
2022-08-19T16:42:53.153Z,21.34
2022-08-19T16:45:42.866Z,21.60
2022-08-19T16:48:59.480Z,21.77
2022-08-19T16:52:17.572Z,22.07
2022-08-19T16:55:57.476Z,22.42
2022-08-19T16:58:28.425Z,22.81
2022-08-19T17:01:17.875Z,23.17
2022-08-19T17:03:52.291Z,23.49
2022-08-19T17:06:32.384Z,23.47
2022-08-19T17:09:26.151Z,23.62
2022-08-19T17:12:34.547Z,23.93
2022-08-19T17:15:12.439Z,24.14
2022-08-19T17:17:49.922Z,24.40
2022-08-19T17:20:25.274Z,24.48
2022-08-19T17:23:14.402Z,24.79
2022-08-19T17:25:46.868Z,24.96
2022-08-19T17:28:28.329Z,25.15
2022-08-19T17:31:14.727Z,25.39
2022-08-19T17:38:18.687Z,26.02
2022-08-19T17:40:48.855Z,26.11
2022-08-19T17:43:33.846Z,26.22
2022-08-19T17:46:23.778Z,26.28
2022-08-19T17:49:00.722Z,26.50
2022-08-19T17:51:42.101Z,26.61
2022-08-19T17:54:15.158Z,26.87
2022-08-19T17:56:45.813Z,26.93
2022-08-19T17:59:19.473Z,27.22
2022-08-19T18:01:53.889Z,27.40
2022-08-19T18:04:28.960Z,27.61
2022-08-19T18:07:03.991Z,27.65
2022-08-19T18:09:42.155Z,27.93
2022-08-19T18:12:15.788Z,28.17
2022-08-19T18:14:47.023Z,28.21
2022-08-19T18:17:18.784Z,28.46
2022-08-19T18:19:49.551Z,28.63
2022-08-19T18:22:27.364Z,28.89
2022-08-19T18:24:58.190Z,29.08
2022-08-19T18:27:47.167Z,29.25
2022-08-19T18:30:35.861Z,29.35
2022-08-19T18:38:48.458Z,29.84
2022-08-19T18:42:34.293Z,30.06
2022-08-19T18:45:30.889Z,30.30
2022-08-19T18:48:49.844Z,30.52
2022-08-19T18:54:25.875Z,30.70
2022-08-19T18:57:15.965Z,30.73
2022-08-19T18:59:48.745Z,30.66
2022-08-19T19:02:20.836Z,30.97
2022-08-19T19:04:50.517Z,31.00
2022-08-19T19:07:20.743Z,31.12
2022-08-19T19:10:04.727Z,31.25
2022-08-19T19:12:36.966Z,31.33
2022-08-19T19:15:21.114Z,31.66
2022-08-19T19:17:51.287Z,31.73
2022-08-19T19:20:20.584Z,31.68
2022-08-19T19:22:50.125Z,31.90
2022-08-19T19:25:19.988Z,32.02
2022-08-19T19:27:49.601Z,32.27
2022-08-19T19:30:23.420Z,32.11
2022-08-19T19:32:55.375Z,32.56
2022-08-19T19:35:29.586Z,32.75
2022-08-19T19:38:01.300Z,32.98
2022-08-19T19:40:32.192Z,33.15
2022-08-19T19:43:04.227Z,33.22
2022-08-19T19:45:34.162Z,33.48
2022-08-19T19:48:04.054Z,33.51
2022-08-19T19:50:33.581Z,33.69
2022-08-19T19:53:03.060Z,33.66
2022-08-19T19:56:06.054Z,33.85
2022-08-19T19:58:40.732Z,34.03
2022-08-19T20:01:21.782Z,34.26
2022-08-19T20:03:55.941Z,34.54
2022-08-19T20:06:28.567Z,34.42
2022-08-19T20:09:10.515Z,34.76
2022-08-19T20:11:49.142Z,34.85
2022-08-19T20:14:29.654Z,34.92
2022-08-19T20:17:00.601Z,35.20
2022-08-19T20:19:36.223Z,35.45
2022-08-19T20:22:13.422Z,35.55
2022-08-19T20:24:46.177Z,35.75
2022-08-19T20:27:17.240Z,35.81
2022-08-19T20:29:50.372Z,36.14
2022-08-19T20:32:23.780Z,36.19
2022-08-19T20:34:53.135Z,36.42
2022-08-19T20:37:25.715Z,36.46
2022-08-19T20:40:00.408Z,36.50
2022-08-19T20:42:29.873Z,36.84
2022-08-19T20:45:07.819Z,37.14
2022-08-19T20:47:48.484Z,37.44
2022-08-19T20:50:18.352Z,37.63
2022-08-19T20:52:50.197Z,37.69
2022-08-19T20:55:23.014Z,37.70
2022-08-19T20:57:52.184Z,37.75
2022-08-19T21:00:25.520Z,37.57
2022-08-19T21:02:56.671Z,37.54
2022-08-19T21:05:30.183Z,37.65
2022-08-19T21:07:59.895Z,37.73
2022-08-19T21:10:33.783Z,37.95
2022-08-19T21:13:04.232Z,37.94
2022-08-19T21:15:33.760Z,37.89
2022-08-19T21:18:03.047Z,38.06
2022-08-19T21:20:32.562Z,38.18
2022-08-19T21:23:21.800Z,38.21
2022-08-19T21:26:02.497Z,38.46
2022-08-19T21:28:35.877Z,38.62
2022-08-19T21:31:09.806Z,38.65
2022-08-19T21:33:41.415Z,38.90
2022-08-19T21:36:10.959Z,39.02
2022-08-19T21:38:41.112Z,38.95
2022-08-19T21:41:10.984Z,39.07
2022-08-19T21:43:40.382Z,39.49
2022-08-19T21:46:09.817Z,39.39
2022-08-19T21:48:42.146Z,39.45
2022-08-19T21:51:14.564Z,39.87
2022-08-19T21:53:46.134Z,39.96
2022-08-19T21:56:18.299Z,40.02
2022-08-19T21:58:49.541Z,40.23
2022-08-19T22:01:18.938Z,40.53
2022-08-19T22:03:48.337Z,40.68
2022-08-19T22:06:21.265Z,40.70
2022-08-19T22:08:50.487Z,40.92
2022-08-19T22:11:24.803Z,40.79
2022-08-19T22:13:56.912Z,41.12
2022-08-19T22:16:32.448Z,41.12
2022-08-19T22:19:06.117Z,41.51
2022-08-19T22:21:40.936Z,41.29
2022-08-19T22:24:10.838Z,41.47
2022-08-19T22:26:39.858Z,41.55
2022-08-19T22:29:09.960Z,41.89
2022-08-19T22:31:39.935Z,41.95
2022-08-19T22:34:11.589Z,42.10
2022-08-19T22:36:40.683Z,42.07
2022-08-19T22:39:09.872Z,42.24
2022-08-19T22:41:40.225Z,42.26
2022-08-19T22:44:11.037Z,42.41
2022-08-19T22:46:40.155Z,42.50
2022-08-19T22:49:09.274Z,42.26
2022-08-19T22:51:59.116Z,42.52
2022-08-19T22:54:28.700Z,42.76
2022-08-19T22:56:57.871Z,42.67
2022-08-19T22:59:26.913Z,42.75
2022-08-19T23:01:56.399Z,42.87
2022-08-19T23:04:25.562Z,43.06
2022-08-19T23:06:59.764Z,43.09
2022-08-19T23:09:43.927Z,43.15
2022-08-19T23:12:33.787Z,43.38
2022-08-19T23:15:25.147Z,43.31
2022-08-19T23:18:04.725Z,43.46
2022-08-19T23:20:41.894Z,43.57
2022-08-19T23:23:28.823Z,43.87
2022-08-19T23:31:01.718Z,43.98
2022-08-19T23:35:32.865Z,44.42
2022-08-19T23:38:22.857Z,44.16
2022-08-19T23:45:37.662Z,44.37
2022-08-19T23:48:54.451Z,44.29
2022-08-19T23:52:24.990Z,44.10
2022-08-19T23:55:47.229Z,44.37
